createdAt,value
2023-04-26T00:04:31.964Z,3.28
2023-04-26T00:06:58.586Z,4.32
2023-04-26T00:11:51.244Z,3.20
2023-04-26T00:16:44.022Z,2.97
2023-04-26T00:19:10.497Z,3.15
2023-04-26T00:21:36.800Z,3.50
2023-04-26T00:24:03.364Z,3.75
2023-04-26T00:26:29.767Z,3.20
2023-04-26T00:31:22.437Z,3.10
2023-04-26T00:36:15.108Z,2.90
2023-04-26T00:38:41.414Z,3.35
2023-04-26T00:41:07.736Z,3.47
2023-04-26T00:43:34.184Z,3.45
2023-04-26T00:48:27.654Z,2.95
2023-04-26T00:50:54.056Z,3.22
2023-04-26T00:55:47.264Z,3.40
2023-04-26T00:58:13.602Z,2.35
2023-04-26T01:00:40.006Z,3.13
2023-04-26T01:05:32.899Z,2.63
2023-04-26T01:08:00.052Z,3.08
2023-04-26T01:10:28.431Z,3.33
2023-04-26T01:12:54.826Z,2.80
2023-04-26T01:15:21.293Z,3.22
2023-04-26T01:20:14.315Z,2.50
2023-04-26T01:22:40.661Z,2.83
2023-04-26T01:25:08.090Z,2.97
2023-04-26T01:27:35.187Z,2.90
2023-04-26T01:30:02.044Z,3.15
2023-04-26T01:32:28.390Z,3.00
2023-04-26T01:34:54.789Z,2.85
2023-04-26T01:37:21.151Z,3.00
2023-04-26T01:39:47.492Z,2.55
2023-04-26T01:42:13.901Z,3.22
2023-04-26T01:47:06.497Z,2.88
2023-04-26T01:49:33.023Z,3.35
2023-04-26T01:51:59.509Z,2.92
2023-04-26T01:56:52.223Z,2.70
2023-04-26T01:59:18.556Z,3.08
2023-04-26T02:01:44.918Z,2.17
2023-04-26T02:04:11.449Z,3.08
2023-04-26T02:09:04.977Z,3.50
2023-04-26T02:11:31.547Z,2.78
2023-04-26T02:13:57.842Z,2.92
2023-04-26T02:16:24.233Z,3.35
2023-04-26T02:21:17.613Z,2.72
2023-04-26T02:23:44.073Z,3.05
2023-04-26T02:28:37.186Z,2.78
2023-04-26T02:33:30.185Z,2.80
2023-04-26T02:38:22.889Z,2.80
2023-04-26T02:40:49.265Z,2.63
2023-04-26T02:43:15.604Z,2.67
2023-04-26T02:45:45.076Z,2.83
2023-04-26T02:48:11.464Z,2.70
2023-04-26T02:50:37.863Z,3.15
2023-04-26T02:53:04.171Z,3.00
2023-04-26T02:55:30.498Z,2.92
2023-04-26T02:57:56.822Z,2.83
2023-04-26T03:00:23.187Z,3.10
2023-04-26T03:02:49.687Z,3.08
2023-04-26T03:05:16.163Z,3.38
2023-04-26T03:07:42.530Z,3.10
2023-04-26T03:10:09.124Z,3.08
2023-04-26T03:12:35.470Z,3.60
2023-04-26T03:15:01.840Z,3.17
2023-04-26T03:17:28.193Z,3.13
2023-04-26T03:19:54.524Z,2.88
2023-04-26T03:22:20.848Z,3.15
2023-04-26T03:24:47.143Z,3.08
2023-04-26T03:27:13.827Z,3.42
2023-04-26T03:29:41.740Z,3.60
2023-04-26T03:32:09.938Z,4.07
2023-04-26T03:37:02.645Z,2.58
2023-04-26T03:39:28.982Z,2.35
2023-04-26T03:41:55.372Z,3.25
2023-04-26T03:44:21.775Z,2.63
2023-04-26T03:46:48.097Z,2.80
2023-04-26T03:49:14.483Z,3.30
2023-04-26T03:51:40.805Z,2.80
2023-04-26T03:54:07.148Z,3.22
2023-04-26T03:56:33.513Z,2.90
2023-04-26T03:58:59.851Z,3.63
2023-04-26T04:01:26.241Z,3.33
2023-04-26T04:03:52.778Z,2.88
2023-04-26T04:06:19.265Z,2.83
2023-04-26T04:08:45.581Z,3.33
2023-04-26T04:11:11.909Z,3.08
2023-04-26T04:13:38.236Z,3.10
2023-04-26T04:16:04.839Z,2.80
2023-04-26T04:18:31.192Z,3.20
2023-04-26T04:20:57.639Z,3.03
2023-04-26T04:25:50.205Z,3.40
2023-04-26T04:28:16.527Z,3.13
2023-04-26T04:30:42.894Z,3.42
2023-04-26T04:33:09.360Z,3.63
2023-04-26T04:35:35.801Z,3.60
2023-04-26T04:38:02.159Z,3.72
2023-04-26T04:40:28.809Z,3.33
2023-04-26T04:42:55.115Z,3.42
2023-04-26T04:45:21.496Z,3.30
2023-04-26T04:47:48.147Z,3.58
2023-04-26T04:50:14.573Z,2.97
2023-04-26T04:52:40.884Z,3.10
2023-04-26T04:55:07.438Z,3.38
2023-04-26T04:57:33.786Z,3.67
2023-04-26T05:00:00.141Z,3.70
2023-04-26T05:02:26.693Z,3.22
2023-04-26T05:04:53.254Z,3.42
2023-04-26T05:09:45.921Z,4.25
2023-04-26T05:12:12.260Z,3.97
2023-04-26T05:14:38.604Z,4.45
2023-04-26T05:17:04.975Z,4.03
2023-04-26T05:19:31.305Z,3.53
2023-04-26T05:21:57.633Z,3.15
2023-04-26T05:24:23.948Z,3.30
2023-04-26T05:26:50.327Z,3.30
2023-04-26T05:31:45.735Z,3.30
2023-04-26T05:34:12.142Z,3.13
2023-04-26T05:39:04.759Z,3.03
2023-04-26T05:43:57.323Z,3.13
2023-04-26T05:48:50.045Z,3.05
2023-04-26T05:51:16.357Z,3.03
2023-04-26T05:53:42.674Z,3.92
2023-04-26T05:58:35.354Z,2.97
2023-04-26T06:03:28.310Z,3.10
2023-04-26T06:05:54.929Z,3.10
2023-04-26T06:08:21.307Z,3.05
2023-04-26T06:10:47.701Z,3.30
2023-04-26T06:13:14.042Z,3.17
2023-04-26T06:15:40.384Z,3.38
2023-04-26T06:18:06.805Z,3.38
2023-04-26T06:20:33.387Z,3.58
2023-04-26T06:22:59.726Z,3.30
2023-04-26T06:25:26.051Z,3.03
2023-04-26T06:27:52.444Z,3.10
2023-04-26T06:30:18.805Z,2.95
2023-04-26T06:32:45.150Z,2.53
2023-04-26T06:35:11.549Z,3.00
2023-04-26T06:37:37.872Z,3.05
2023-04-26T06:40:04.874Z,2.60
2023-04-26T06:42:31.352Z,2.38
2023-04-26T06:44:58.062Z,2.60
2023-04-26T06:47:24.484Z,2.70
2023-04-26T06:49:50.958Z,2.50
2023-04-26T06:52:17.665Z,2.10
2023-04-26T06:54:56.022Z,2.17
2023-04-26T06:57:23.686Z,2.42
2023-04-26T06:59:50.034Z,2.30
2023-04-26T07:02:16.415Z,2.22
2023-04-26T07:04:43.095Z,2.00
2023-04-26T07:07:12.449Z,2.00
2023-04-26T07:09:39.439Z,1.88
2023-04-26T07:12:06.118Z,2.00
2023-04-26T07:14:32.496Z,1.98
2023-04-26T07:16:58.868Z,1.95
2023-04-26T07:19:25.185Z,1.80
2023-04-26T07:21:51.564Z,2.08
2023-04-26T07:24:17.920Z,2.13
2023-04-26T07:26:44.265Z,1.85
2023-04-26T07:29:10.586Z,2.03
2023-04-26T07:31:36.936Z,1.88
2023-04-26T07:34:03.548Z,2.10
2023-04-26T07:36:30.071Z,1.95
2023-04-26T07:38:56.361Z,2.00
2023-04-26T07:41:22.779Z,1.90
2023-04-26T07:43:49.216Z,1.50
2023-04-26T07:46:15.677Z,1.50
2023-04-26T07:48:42.186Z,1.60
2023-04-26T07:51:10.538Z,1.80
2023-04-26T07:53:37.673Z,1.70
2023-04-26T07:56:08.357Z,1.50
2023-04-26T07:58:35.634Z,1.58
2023-04-26T08:01:02.499Z,1.50
2023-04-26T08:03:29.230Z,1.40
2023-04-26T08:05:55.917Z,1.48
2023-04-26T08:08:22.817Z,1.30
2023-04-26T08:10:49.196Z,1.50
2023-04-26T08:13:15.566Z,1.30
2023-04-26T08:15:41.937Z,1.65
2023-04-26T08:18:08.330Z,1.40
2023-04-26T08:20:34.782Z,1.73
2023-04-26T08:23:01.075Z,1.73
2023-04-26T08:25:27.701Z,1.50
2023-04-26T08:27:54.077Z,1.42
2023-04-26T08:30:20.589Z,1.58
2023-04-26T08:32:47.242Z,1.67
2023-04-26T08:35:13.663Z,1.55
2023-04-26T08:37:40.012Z,1.55
2023-04-26T08:40:07.579Z,1.45
2023-04-26T08:42:40.977Z,1.42
2023-04-26T08:45:08.512Z,1.20
2023-04-26T08:47:43.171Z,1.48
2023-04-26T08:50:11.976Z,1.40
2023-04-26T08:52:39.580Z,1.80
2023-04-26T08:55:08.108Z,1.35
2023-04-26T08:57:35.603Z,1.40
2023-04-26T09:00:03.085Z,1.40
2023-04-26T09:02:29.741Z,1.45
2023-04-26T09:04:56.266Z,1.42
2023-04-26T09:07:28.085Z,1.40
2023-04-26T09:09:57.470Z,1.50
2023-04-26T09:12:23.903Z,1.40
2023-04-26T09:14:50.265Z,1.30
2023-04-26T09:17:36.809Z,1.10
2023-04-26T09:20:27.368Z,1.20
2023-04-26T09:23:08.455Z,1.50
2023-04-26T09:25:35.935Z,1.40
2023-04-26T09:28:03.886Z,1.42
2023-04-26T09:30:37.829Z,1.30
2023-04-26T09:33:04.651Z,1.40
2023-04-26T09:35:38.491Z,1.20
2023-04-26T09:38:16.171Z,1.40
2023-04-26T09:40:47.181Z,1.38
2023-04-26T09:43:14.520Z,1.27
2023-04-26T09:45:46.770Z,1.50
2023-04-26T09:48:27.513Z,1.30
2023-04-26T09:50:56.575Z,1.20
2023-04-26T09:53:28.135Z,1.60
2023-04-26T09:55:56.341Z,1.50
2023-04-26T09:58:23.005Z,1.63
2023-04-26T10:00:51.712Z,1.40
2023-04-26T10:03:19.701Z,1.45
2023-04-26T10:05:46.645Z,1.27
2023-04-26T10:08:13.194Z,1.35
2023-04-26T10:10:41.010Z,1.20
2023-04-26T10:13:07.327Z,1.40
2023-04-26T10:15:34.159Z,1.30
2023-04-26T10:18:00.645Z,1.33
2023-04-26T10:20:28.590Z,1.27
2023-04-26T10:22:57.162Z,1.30
2023-04-26T10:25:34.929Z,1.30
2023-04-26T10:28:01.283Z,1.20
2023-04-26T10:30:27.607Z,1.42
2023-04-26T10:32:56.709Z,1.33
2023-04-26T10:35:28.328Z,1.40
2023-04-26T10:38:00.523Z,1.40
2023-04-26T10:40:29.524Z,1.23
2023-04-26T10:43:11.240Z,1.50
2023-04-26T10:45:39.206Z,1.10
2023-04-26T10:48:14.896Z,1.30
2023-04-26T10:50:59.671Z,1.48
2023-04-26T10:53:26.558Z,1.30
2023-04-26T10:55:52.976Z,1.17
2023-04-26T10:58:26.894Z,1.25
2023-04-26T11:01:05.779Z,1.30
2023-04-26T11:03:32.516Z,1.50
2023-04-26T11:05:59.258Z,1.60
2023-04-26T11:08:29.665Z,1.58
2023-04-26T11:11:05.130Z,1.27
2023-04-26T11:13:32.416Z,1.50
2023-04-26T11:16:04.188Z,1.65
2023-04-26T11:18:32.224Z,1.42
2023-04-26T11:20:59.320Z,1.50
2023-04-26T11:23:27.804Z,1.42
2023-04-26T11:25:56.902Z,1.70
2023-04-26T11:28:23.179Z,1.38
2023-04-26T11:30:50.023Z,1.60
2023-04-26T11:33:18.660Z,1.50
2023-04-26T11:35:46.947Z,1.50
2023-04-26T11:38:13.501Z,1.63
2023-04-26T11:40:40.407Z,2.13
2023-04-26T11:43:08.501Z,1.75
2023-04-26T11:45:37.212Z,1.55
2023-04-26T11:48:06.902Z,1.60
2023-04-26T11:50:34.464Z,1.60
2023-04-26T11:53:03.570Z,1.50
2023-04-26T11:55:31.143Z,1.50
2023-04-26T11:57:57.809Z,1.48
2023-04-26T12:00:24.679Z,1.67
2023-04-26T12:02:51.452Z,1.60
2023-04-26T12:05:33.294Z,1.60
2023-04-26T12:08:00.724Z,1.67
2023-04-26T12:10:31.165Z,1.75
2023-04-26T12:13:00.652Z,1.83
2023-04-26T12:15:32.175Z,1.65
2023-04-26T12:18:00.012Z,1.75
2023-04-26T12:20:28.025Z,1.23
2023-04-26T12:23:06.235Z,1.70
2023-04-26T12:25:34.648Z,1.90
2023-04-26T12:28:03.161Z,1.35
2023-04-26T12:30:30.210Z,1.60
2023-04-26T12:33:05.730Z,1.50
2023-04-26T12:35:41.946Z,1.70
2023-04-26T12:38:08.404Z,1.63
2023-04-26T12:40:34.801Z,1.60
2023-04-26T12:43:01.157Z,1.55
2023-04-26T12:45:27.511Z,1.60
2023-04-26T12:47:54.572Z,1.60
2023-04-26T12:50:21.141Z,1.70
2023-04-26T12:52:47.946Z,1.38
2023-04-26T12:55:15.541Z,1.55
2023-04-26T12:57:45.192Z,1.65
2023-04-26T13:00:16.404Z,1.60
2023-04-26T13:02:43.335Z,1.55
2023-04-26T13:05:10.589Z,1.80
2023-04-26T13:07:39.347Z,1.77
2023-04-26T13:10:07.192Z,1.98
2023-04-26T13:12:34.508Z,1.88
2023-04-26T13:15:00.890Z,1.80
2023-04-26T13:17:27.704Z,1.73
2023-04-26T13:19:55.515Z,1.50
2023-04-26T13:22:22.087Z,1.60
2023-04-26T13:24:48.625Z,1.63
2023-04-26T13:27:15.163Z,1.83
2023-04-26T13:29:41.504Z,1.73
2023-04-26T13:32:07.910Z,1.90
2023-04-26T13:34:34.455Z,1.95
2023-04-26T13:37:00.773Z,1.50
2023-04-26T13:39:28.161Z,1.88
2023-04-26T13:41:55.009Z,1.83
2023-04-26T13:44:21.667Z,1.60
2023-04-26T13:46:48.179Z,1.90
2023-04-26T13:49:14.603Z,1.80
2023-04-26T13:51:41.352Z,1.92
2023-04-26T13:54:07.786Z,1.80
2023-04-26T13:56:34.447Z,1.50
2023-04-26T13:59:01.077Z,1.42
2023-04-26T14:01:27.845Z,1.17
2023-04-26T14:03:57.226Z,1.95
2023-04-26T14:06:23.680Z,1.65
2023-04-26T14:08:49.995Z,1.63
2023-04-26T14:11:26.874Z,1.63
2023-04-26T14:13:54.491Z,1.80
2023-04-26T14:16:21.014Z,1.73
2023-04-26T14:18:50.833Z,2.00
2023-04-26T14:21:18.210Z,2.00
2023-04-26T14:23:44.594Z,1.90
2023-04-26T14:26:11.323Z,1.77
2023-04-26T14:28:38.030Z,2.05
2023-04-26T14:31:04.488Z,2.30
2023-04-26T14:33:30.859Z,2.33
2023-04-26T14:35:57.197Z,2.30
2023-04-26T14:38:23.628Z,1.95
2023-04-26T14:40:50.006Z,1.90
2023-04-26T14:43:16.413Z,2.10
2023-04-26T14:45:44.877Z,1.90
2023-04-26T14:48:11.596Z,2.00
2023-04-26T14:50:37.960Z,1.70
2023-04-26T14:53:04.362Z,2.00
2023-04-26T14:55:30.759Z,1.80
2023-04-26T14:57:57.102Z,1.70
2023-04-26T15:00:23.557Z,1.58
2023-04-26T15:02:49.957Z,1.70
2023-04-26T15:05:16.434Z,1.63
2023-04-26T15:07:42.756Z,1.77
2023-04-26T15:10:09.187Z,2.03
2023-04-26T15:12:35.619Z,1.70
2023-04-26T15:15:02.677Z,1.77
2023-04-26T15:17:32.142Z,1.55
2023-04-26T15:19:58.654Z,1.77
2023-04-26T15:22:24.973Z,1.65
2023-04-26T15:24:51.298Z,1.52
2023-04-26T15:27:17.692Z,1.70
2023-04-26T15:29:44.050Z,1.60
2023-04-26T15:32:10.484Z,2.10
2023-04-26T15:34:40.191Z,2.03
2023-04-26T15:37:06.578Z,1.90
2023-04-26T15:39:32.916Z,1.40
2023-04-26T15:41:59.265Z,2.22
2023-04-26T15:44:25.623Z,1.80
2023-04-26T15:46:51.985Z,1.77
2023-04-26T15:49:18.323Z,1.58
2023-04-26T15:51:44.612Z,1.75
2023-04-26T15:54:10.975Z,1.52
2023-04-26T15:56:37.316Z,1.48
2023-04-26T15:59:03.610Z,1.52
2023-04-26T16:01:29.993Z,1.65
2023-04-26T16:03:57.110Z,1.67
2023-04-26T16:06:23.577Z,1.80
2023-04-26T16:08:49.899Z,1.08
2023-04-26T16:11:16.275Z,1.73
2023-04-26T16:13:42.610Z,1.88
2023-04-26T16:16:09.047Z,1.90
2023-04-26T16:18:35.450Z,1.73
2023-04-26T16:21:05.584Z,1.67
2023-04-26T16:23:32.278Z,2.80
2023-04-26T16:25:59.285Z,2.50
2023-04-26T16:28:25.741Z,1.25
2023-04-26T16:30:52.107Z,1.90
2023-04-26T16:33:21.164Z,1.20
2023-04-26T16:35:52.886Z,1.83
2023-04-26T16:38:19.748Z,1.30
2023-04-26T16:40:53.701Z,1.60
2023-04-26T16:43:20.311Z,1.52
2023-04-26T16:45:46.879Z,1.70
2023-04-26T16:48:13.285Z,1.85
2023-04-26T16:50:39.757Z,1.52
2023-04-26T16:53:06.422Z,1.95
2023-04-26T16:55:32.751Z,1.80
2023-04-26T16:57:59.074Z,1.70
2023-04-26T17:00:25.436Z,2.13
2023-04-26T17:02:52.095Z,1.80
2023-04-26T17:05:18.734Z,1.77
2023-04-26T17:07:45.086Z,1.95
2023-04-26T17:10:11.421Z,2.00
2023-04-26T17:12:37.790Z,1.77
2023-04-26T17:15:04.950Z,1.88
2023-04-26T17:17:31.346Z,2.10
2023-04-26T17:19:57.702Z,2.00
2023-04-26T17:22:24.033Z,2.15
2023-04-26T17:25:02.059Z,1.88
2023-04-26T17:27:28.407Z,2.10
2023-04-26T17:29:55.245Z,2.20
2023-04-26T17:32:21.583Z,1.83
2023-04-26T17:34:48.104Z,1.67
2023-04-26T17:37:14.462Z,1.20
2023-04-26T17:39:41.003Z,1.83
2023-04-26T17:42:09.917Z,1.63
2023-04-26T17:44:36.252Z,2.00
2023-04-26T17:47:02.581Z,1.90
2023-04-26T17:49:28.913Z,1.52
2023-04-26T17:51:55.228Z,1.95
2023-04-26T17:54:23.010Z,2.00
2023-04-26T17:56:49.327Z,2.30
2023-04-26T18:01:42.017Z,2.05
2023-04-26T18:04:08.490Z,1.90
2023-04-26T18:06:35.074Z,2.08
2023-04-26T18:09:01.398Z,1.92
2023-04-26T18:13:54.029Z,2.40
2023-04-26T18:16:20.418Z,2.13
2023-04-26T18:18:46.757Z,2.25
2023-04-26T18:23:39.461Z,2.20
2023-04-26T18:26:05.825Z,2.10
2023-04-26T18:28:32.143Z,2.20
2023-04-26T18:33:26.712Z,1.83
2023-04-26T18:35:53.068Z,2.10
2023-04-26T18:38:19.537Z,2.20
2023-04-26T18:40:46.787Z,2.40
2023-04-26T18:43:13.603Z,2.03
2023-04-26T18:45:40.151Z,2.25
2023-04-26T18:48:06.538Z,2.00
2023-04-26T18:50:33.247Z,2.10
2023-04-26T18:52:59.822Z,1.80
2023-04-26T18:55:26.144Z,2.10
2023-04-26T19:00:19.107Z,2.20
2023-04-26T19:02:45.605Z,2.08
2023-04-26T19:05:12.379Z,1.90
2023-04-26T19:07:39.330Z,2.13
2023-04-26T19:10:06.305Z,2.00
2023-04-26T19:12:32.858Z,2.40
2023-04-26T19:14:59.247Z,2.10
2023-04-26T19:17:25.682Z,2.20
2023-04-26T19:19:52.171Z,1.90
2023-04-26T19:22:18.719Z,2.22
2023-04-26T19:24:48.992Z,2.22
2023-04-26T19:27:15.801Z,2.30
2023-04-26T19:29:42.370Z,2.08
2023-04-26T19:32:08.706Z,2.60
2023-04-26T19:37:02.025Z,1.92
2023-04-26T19:39:28.389Z,2.25
2023-04-26T19:44:20.970Z,2.10
2023-04-26T19:49:13.613Z,2.20
2023-04-26T19:54:06.214Z,2.30
2023-04-26T19:58:59.015Z,2.15
2023-04-26T20:01:25.478Z,2.30
2023-04-26T20:03:51.966Z,2.50
2023-04-26T20:06:18.408Z,2.38
2023-04-26T20:11:10.997Z,2.50
2023-04-26T20:13:37.344Z,2.47
2023-04-26T20:18:30.162Z,2.70
2023-04-26T20:23:22.792Z,2.60
2023-04-26T20:28:16.713Z,2.40
2023-04-26T20:30:43.004Z,2.60
2023-04-26T20:33:09.433Z,2.50
2023-04-26T20:35:35.867Z,2.50
2023-04-26T20:40:28.684Z,2.55
2023-04-26T20:42:55.300Z,2.50
2023-04-26T20:45:21.614Z,2.67
2023-04-26T20:47:47.984Z,2.13
2023-04-26T20:52:40.604Z,2.75
2023-04-26T20:55:08.256Z,3.10
2023-04-26T20:57:34.573Z,3.03
2023-04-26T21:00:00.902Z,2.97
2023-04-26T21:02:27.345Z,2.88
2023-04-26T21:04:53.971Z,3.38
2023-04-26T21:07:20.342Z,2.90
2023-04-26T21:09:46.657Z,2.97
2023-04-26T21:12:12.987Z,3.28
2023-04-26T21:14:39.281Z,3.20
2023-04-26T21:17:05.623Z,2.88
2023-04-26T21:19:32.201Z,2.78
2023-04-26T21:21:58.488Z,2.88
2023-04-26T21:24:24.814Z,2.67
2023-04-26T21:26:51.127Z,3.08
2023-04-26T21:29:17.437Z,2.50
2023-04-26T21:31:43.979Z,2.67
2023-04-26T21:34:10.526Z,2.45
2023-04-26T21:36:36.864Z,2.38
2023-04-26T21:39:03.336Z,2.42
2023-04-26T21:41:29.696Z,2.80
2023-04-26T21:46:22.336Z,2.70
2023-04-26T21:51:15.050Z,2.53
2023-04-26T21:56:07.792Z,3.35
2023-04-26T22:01:11.599Z,2.55
2023-04-26T22:03:38.524Z,2.70
2023-04-26T22:06:06.061Z,2.58
2023-04-26T22:08:32.775Z,2.60
2023-04-26T22:10:59.571Z,2.78
2023-04-26T22:13:26.029Z,3.33
2023-04-26T22:18:18.890Z,3.75
2023-04-26T22:20:45.271Z,3.95
2023-04-26T22:23:11.725Z,3.10
2023-04-26T22:28:04.798Z,2.67
2023-04-26T22:30:31.171Z,2.63
2023-04-26T22:35:25.062Z,3.10
2023-04-26T22:37:51.625Z,3.50
2023-04-26T22:40:18.148Z,3.05
2023-04-26T22:42:44.625Z,3.30
2023-04-26T22:47:39.185Z,2.85
2023-04-26T22:50:06.224Z,2.80
2023-04-26T22:52:32.804Z,3.47
2023-04-26T22:54:59.402Z,3.58
2023-04-26T22:59:51.994Z,3.42
2023-04-26T23:02:18.362Z,3.28
2023-04-26T23:07:11.027Z,3.15
2023-04-26T23:09:37.375Z,3.42
2023-04-26T23:12:03.973Z,3.28
2023-04-26T23:14:30.325Z,3.88
2023-04-26T23:16:56.732Z,3.40
2023-04-26T23:21:49.315Z,3.65
2023-04-26T23:24:15.633Z,3.50
2023-04-26T23:26:41.976Z,4.07
2023-04-26T23:29:08.580Z,3.88
2023-04-26T23:31:34.998Z,3.55
2023-04-26T23:34:01.295Z,3.97
2023-04-26T23:36:27.663Z,3.85
2023-04-26T23:38:53.974Z,4.30
2023-04-26T23:41:20.361Z,4.22
2023-04-26T23:43:46.673Z,4.30
2023-04-26T23:46:13.055Z,4.25
2023-04-26T23:48:39.385Z,3.97
2023-04-26T23:51:05.773Z,3.28
2023-04-26T23:53:32.068Z,3.67
2023-04-26T23:55:58.386Z,3.55
2023-04-26T23:58:24.745Z,3.83
